createdAt,value
2022-11-16T00:02:01.080Z,7.60
2022-11-16T00:04:37.348Z,7.60
2022-11-16T00:07:13.710Z,7.60
2022-11-16T00:09:49.702Z,7.60
2022-11-16T00:12:25.832Z,7.60
2022-11-16T00:15:01.882Z,7.60
2022-11-16T00:17:37.619Z,7.60
2022-11-16T00:20:15.827Z,7.60
2022-11-16T00:22:51.642Z,7.60
2022-11-16T00:25:27.638Z,7.60
2022-11-16T00:28:03.447Z,7.60
2022-11-16T00:30:39.781Z,7.54
2022-11-16T00:33:18.362Z,7.60
2022-11-16T00:35:54.214Z,7.60
2022-11-16T00:38:30.563Z,7.60
2022-11-16T00:41:07.385Z,7.60
2022-11-16T00:43:43.352Z,7.60
2022-11-16T00:46:19.441Z,7.60
2022-11-16T00:48:55.504Z,7.60
2022-11-16T00:51:31.502Z,7.60
2022-11-16T00:54:10.027Z,7.60
2022-11-16T00:56:46.131Z,7.60
2022-11-16T00:59:21.964Z,7.60
2022-11-16T01:01:57.926Z,7.60
2022-11-16T01:04:33.800Z,7.60
2022-11-16T01:07:09.906Z,7.60
2022-11-16T01:09:45.838Z,7.60
2022-11-16T01:12:21.736Z,7.60
2022-11-16T01:14:57.984Z,7.60
2022-11-16T01:17:33.889Z,7.60
2022-11-16T01:20:16.711Z,7.60
2022-11-16T01:22:52.831Z,7.60
2022-11-16T01:25:28.937Z,7.60
2022-11-16T01:28:05.089Z,7.60
2022-11-16T01:30:54.945Z,7.60
2022-11-16T01:33:31.503Z,7.60
2022-11-16T01:36:14.837Z,7.60
2022-11-16T01:38:51.766Z,7.60
2022-11-16T01:41:30.328Z,7.60
2022-11-16T01:44:47.848Z,7.60
2022-11-16T01:47:26.169Z,7.60
2022-11-16T01:50:14.286Z,7.70
2022-11-16T01:52:59.933Z,7.70
2022-11-16T01:55:44.484Z,7.70
2022-11-16T01:58:30.054Z,7.70
2022-11-16T02:01:12.283Z,7.70
2022-11-16T02:03:53.015Z,7.70
2022-11-16T02:06:59.994Z,7.70
2022-11-16T02:10:07.970Z,7.70
2022-11-16T02:13:22.041Z,7.70
2022-11-16T02:16:13.413Z,7.70
2022-11-16T02:19:03.171Z,7.70
2022-11-16T02:21:48.382Z,7.70
2022-11-16T02:25:00.271Z,7.70
2022-11-16T02:28:27.467Z,7.70
2022-11-16T02:31:14.293Z,7.70
2022-11-16T02:33:54.210Z,7.70
2022-11-16T02:36:33.622Z,7.70
2022-11-16T02:39:16.958Z,7.70
2022-11-16T02:41:57.081Z,7.70
2022-11-16T02:44:37.809Z,7.70
2022-11-16T02:47:21.358Z,7.70
2022-11-16T02:50:05.043Z,7.70
2022-11-16T02:52:41.791Z,7.70
2022-11-16T02:55:19.049Z,7.70
2022-11-16T02:58:02.683Z,7.70
2022-11-16T03:00:49.160Z,7.70
2022-11-16T03:03:40.791Z,7.70
2022-11-16T03:06:24.392Z,7.70
2022-11-16T03:09:10.203Z,7.70
2022-11-16T03:12:02.970Z,7.70
2022-11-16T03:14:50.231Z,7.70
2022-11-16T03:17:33.925Z,7.70
2022-11-16T03:20:17.086Z,7.70
2022-11-16T03:22:59.045Z,7.70
2022-11-16T03:25:42.145Z,7.70
2022-11-16T03:28:29.448Z,7.70
2022-11-16T03:31:18.804Z,7.70
2022-11-16T03:33:59.360Z,7.72
2022-11-16T03:36:40.780Z,7.80
2022-11-16T03:39:24.789Z,7.80
2022-11-16T03:42:04.465Z,7.80
2022-11-16T03:44:41.975Z,7.78
2022-11-16T03:47:18.967Z,7.70
2022-11-16T03:49:54.749Z,7.70
2022-11-16T03:52:32.557Z,7.70
2022-11-16T03:55:10.851Z,7.70
2022-11-16T03:57:46.779Z,7.70
2022-11-16T04:00:23.070Z,7.70
2022-11-16T04:03:00.645Z,7.70
2022-11-16T04:05:54.538Z,7.62
2022-11-16T04:08:47.794Z,7.60
2022-11-16T04:11:44.537Z,7.50
2022-11-16T04:14:50.976Z,7.50
2022-11-16T04:17:46.139Z,7.50
2022-11-16T04:20:45.991Z,7.40
2022-11-16T04:23:39.741Z,7.40
2022-11-16T04:26:16.307Z,7.40
2022-11-16T04:28:52.161Z,7.40
2022-11-16T04:31:45.820Z,7.40
2022-11-16T04:34:39.389Z,7.40
2022-11-16T04:37:38.019Z,7.40
2022-11-16T04:40:17.557Z,7.40
2022-11-16T04:42:59.471Z,7.40
2022-11-16T04:45:55.397Z,7.40
2022-11-16T04:48:34.168Z,7.40
2022-11-16T04:51:11.984Z,7.40
2022-11-16T04:53:48.198Z,7.40
2022-11-16T04:56:27.904Z,7.40
2022-11-16T04:59:03.983Z,7.40
2022-11-16T05:01:57.745Z,7.48
2022-11-16T05:04:33.994Z,7.50
2022-11-16T05:07:12.425Z,7.48
2022-11-16T05:09:51.474Z,7.50
2022-11-16T05:12:30.237Z,7.50
2022-11-16T05:15:10.645Z,7.50
2022-11-16T05:17:46.484Z,7.50
2022-11-16T05:20:43.213Z,7.50
2022-11-16T05:23:36.699Z,7.50
2022-11-16T05:26:16.328Z,7.50
2022-11-16T05:28:52.156Z,7.50
2022-11-16T05:31:28.121Z,7.50
2022-11-16T05:34:04.295Z,7.50
2022-11-16T05:36:40.341Z,7.60
2022-11-16T05:39:17.196Z,7.60
2022-11-16T05:41:53.380Z,7.60
2022-11-16T05:44:29.852Z,7.60
2022-11-16T05:47:06.298Z,7.60
2022-11-16T05:49:42.386Z,7.60
2022-11-16T05:52:18.286Z,7.60
2022-11-16T05:54:54.492Z,7.54
2022-11-16T05:57:30.620Z,7.50
2022-11-16T06:00:08.834Z,7.50
2022-11-16T06:03:02.881Z,7.50
2022-11-16T06:05:41.574Z,7.50
2022-11-16T06:08:18.698Z,7.50
2022-11-16T06:10:55.595Z,7.48
2022-11-16T06:13:31.984Z,7.40
2022-11-16T06:16:10.536Z,7.40
2022-11-16T06:18:48.945Z,7.40
2022-11-16T06:21:25.309Z,7.40
2022-11-16T06:24:02.845Z,7.40
2022-11-16T06:26:39.823Z,7.40
2022-11-16T06:29:16.039Z,7.40
2022-11-16T06:31:52.037Z,7.40
2022-11-16T06:34:28.231Z,7.40
2022-11-16T06:37:05.620Z,7.40
2022-11-16T06:39:44.463Z,7.42
2022-11-16T06:42:20.580Z,7.48
2022-11-16T06:44:56.680Z,7.50
2022-11-16T06:47:36.100Z,7.50
2022-11-16T06:50:14.062Z,7.50
2022-11-16T06:52:50.721Z,7.50
2022-11-16T06:55:27.038Z,7.50
2022-11-16T06:58:03.028Z,7.50
2022-11-16T07:00:39.916Z,7.50
2022-11-16T07:03:17.391Z,7.50
2022-11-16T07:05:53.275Z,7.40
2022-11-16T07:08:32.417Z,7.40
2022-11-16T07:11:11.789Z,7.40
2022-11-16T07:13:48.992Z,7.40
2022-11-16T07:16:25.250Z,7.48
2022-11-16T07:19:05.259Z,7.48
2022-11-16T07:21:41.602Z,7.40
2022-11-16T07:24:21.800Z,7.40
2022-11-16T07:26:57.694Z,7.40
2022-11-16T07:29:34.936Z,7.40
2022-11-16T07:32:43.373Z,7.40
2022-11-16T07:36:12.926Z,7.40
2022-11-16T07:38:49.075Z,7.34
2022-11-16T07:41:26.363Z,7.30
2022-11-16T07:44:13.368Z,7.22
2022-11-16T07:46:50.814Z,7.12
2022-11-16T07:49:26.618Z,7.04
2022-11-16T07:52:05.520Z,6.94
2022-11-16T07:54:45.698Z,6.88
2022-11-16T07:57:22.654Z,6.80
2022-11-16T07:59:58.696Z,6.70
2022-11-16T08:02:36.737Z,6.60
2022-11-16T08:05:13.314Z,6.56
2022-11-16T08:07:49.302Z,6.50
2022-11-16T08:10:25.663Z,6.50
2022-11-16T08:13:02.912Z,6.40
2022-11-16T08:15:38.868Z,6.40
2022-11-16T08:18:15.720Z,6.30
2022-11-16T08:20:51.667Z,6.30
2022-11-16T08:23:27.658Z,6.20
2022-11-16T08:26:09.383Z,6.20
2022-11-16T08:28:50.956Z,6.20
2022-11-16T08:31:30.190Z,6.20
2022-11-16T08:34:16.605Z,6.16
2022-11-16T08:36:55.818Z,6.14
2022-11-16T08:39:36.255Z,6.10
2022-11-16T08:42:12.427Z,6.10
2022-11-16T08:44:49.202Z,6.10
2022-11-16T08:47:28.100Z,6.10
2022-11-16T08:50:08.492Z,6.00
2022-11-16T08:52:44.572Z,6.00
2022-11-16T08:55:21.107Z,6.00
2022-11-16T08:57:58.173Z,6.02
2022-11-16T09:00:35.061Z,6.02
2022-11-16T09:03:10.911Z,6.00
2022-11-16T09:05:47.501Z,6.00
2022-11-16T09:08:23.318Z,6.00
2022-11-16T09:10:59.128Z,6.00
2022-11-16T09:13:35.055Z,6.00
2022-11-16T09:16:12.016Z,6.00
2022-11-16T09:18:48.263Z,6.02
2022-11-16T09:21:26.751Z,6.10
2022-11-16T09:24:03.127Z,6.10
2022-11-16T09:26:39.443Z,6.10
2022-11-16T09:29:19.339Z,6.20
2022-11-16T09:31:55.481Z,6.20
2022-11-16T09:34:31.506Z,6.20
2022-11-16T09:37:08.275Z,6.20
2022-11-16T09:39:44.017Z,6.20
2022-11-16T09:42:45.973Z,6.20
2022-11-16T09:45:32.957Z,6.20
2022-11-16T09:48:14.883Z,6.20
2022-11-16T09:50:55.026Z,6.20
2022-11-16T09:53:39.848Z,6.20
2022-11-16T09:56:22.443Z,6.20
2022-11-16T09:59:07.573Z,6.22
2022-11-16T10:01:51.723Z,6.22
2022-11-16T10:04:39.298Z,6.30
2022-11-16T10:07:22.709Z,6.22
2022-11-16T10:10:00.692Z,6.30
2022-11-16T10:12:43.998Z,6.30
2022-11-16T10:15:53.054Z,6.30
2022-11-16T10:18:49.506Z,6.30
2022-11-16T10:21:49.297Z,6.36
2022-11-16T10:24:47.797Z,6.40
2022-11-16T10:27:45.544Z,6.40
2022-11-16T10:30:24.129Z,6.40
2022-11-16T10:33:10.960Z,6.40
2022-11-16T10:35:53.777Z,6.40
2022-11-16T10:38:33.158Z,6.46
2022-11-16T10:41:22.557Z,6.50
2022-11-16T10:44:01.155Z,6.50
2022-11-16T10:46:46.897Z,6.50
2022-11-16T10:49:36.096Z,6.50
2022-11-16T10:52:12.586Z,6.50
2022-11-16T10:54:48.664Z,6.50
2022-11-16T10:57:26.648Z,6.50
2022-11-16T11:00:03.472Z,6.50
2022-11-16T11:02:48.908Z,6.50
2022-11-16T11:05:27.012Z,6.50
2022-11-16T11:08:11.800Z,6.50
2022-11-16T11:11:01.881Z,6.48
2022-11-16T11:13:38.176Z,6.50
2022-11-16T11:16:22.182Z,6.50
2022-11-16T11:18:58.224Z,6.50
2022-11-16T11:21:34.383Z,6.48
2022-11-16T11:27:22.424Z,6.50
2022-11-16T11:30:02.665Z,6.50
2022-11-16T11:32:44.891Z,6.50
2022-11-16T11:35:33.722Z,6.50
2022-11-16T11:38:15.899Z,6.50
2022-11-16T11:41:00.642Z,6.50
2022-11-16T11:43:40.628Z,6.46
2022-11-16T11:46:50.237Z,6.50
2022-11-16T11:49:34.157Z,6.46
2022-11-16T11:52:22.676Z,6.40
2022-11-16T11:54:59.281Z,6.40
2022-11-16T11:57:40.968Z,6.40
2022-11-16T12:00:21.948Z,6.36
2022-11-16T12:03:41.575Z,6.30
2022-11-16T12:06:29.547Z,6.30
2022-11-16T12:09:31.684Z,6.30
2022-11-16T12:12:28.899Z,6.30
2022-11-16T12:15:36.629Z,6.30
2022-11-16T12:18:38.783Z,6.20
2022-11-16T12:21:22.718Z,6.20
2022-11-16T12:24:27.638Z,6.20
2022-11-16T12:27:19.272Z,6.20
2022-11-16T12:30:08.715Z,6.20
2022-11-16T12:33:29.881Z,6.20
2022-11-16T12:36:30.369Z,6.20
2022-11-16T12:39:29.174Z,6.20
2022-11-16T12:42:30.934Z,6.20
2022-11-16T12:45:43.815Z,6.20
2022-11-16T12:48:51.265Z,6.20
2022-11-16T12:51:50.885Z,6.20
2022-11-16T12:55:25.358Z,6.20
2022-11-16T12:58:19.373Z,6.20
2022-11-16T13:01:14.401Z,6.20
2022-11-16T13:03:57.150Z,6.20
2022-11-16T13:06:39.783Z,6.20
2022-11-16T13:09:21.655Z,6.20
2022-11-16T13:11:59.202Z,6.20
2022-11-16T13:14:41.353Z,6.18
2022-11-16T13:17:23.579Z,6.10
2022-11-16T13:20:35.246Z,6.10
2022-11-16T13:23:20.080Z,6.02
2022-11-16T13:26:10.411Z,6.00
2022-11-16T13:28:57.223Z,6.00
2022-11-16T13:31:44.394Z,6.00
2022-11-16T13:34:29.347Z,6.00
2022-11-16T13:37:44.261Z,6.00
2022-11-16T13:40:34.266Z,6.00
2022-11-16T13:43:22.701Z,6.00
2022-11-16T13:46:03.436Z,6.00
2022-11-16T13:48:46.063Z,6.00
2022-11-16T13:51:25.705Z,5.92
2022-11-16T13:54:44.095Z,5.90
2022-11-16T13:56:58.503Z,5.90
2022-11-16T13:59:38.200Z,5.90
2022-11-16T14:02:36.342Z,5.90
2022-11-16T14:05:43.767Z,5.90
2022-11-16T14:08:58.404Z,5.90
2022-11-16T14:11:39.914Z,5.86
2022-11-16T14:14:56.297Z,5.82
2022-11-16T14:17:59.394Z,5.80
2022-11-16T14:21:03.104Z,5.80
2022-11-16T14:24:17.469Z,5.80
2022-11-16T14:27:08.467Z,5.80
2022-11-16T14:30:03.797Z,5.80
2022-11-16T14:32:49.842Z,5.80
2022-11-16T14:35:40.899Z,5.80
2022-11-16T14:38:33.168Z,5.80
2022-11-16T14:41:22.615Z,5.80
2022-11-16T14:44:01.366Z,5.76
2022-11-16T14:46:40.989Z,5.80
2022-11-16T14:49:20.476Z,5.78
2022-11-16T14:52:02.576Z,5.80
2022-11-16T14:54:49.018Z,5.80
2022-11-16T14:57:26.965Z,5.80
2022-11-16T15:00:27.013Z,5.76
2022-11-16T15:03:03.869Z,5.80
2022-11-16T15:05:41.144Z,5.76
2022-11-16T15:08:24.785Z,5.78
2022-11-16T15:11:01.448Z,5.72
2022-11-16T15:13:38.249Z,5.80
2022-11-16T15:16:23.018Z,5.70
2022-11-16T15:19:13.234Z,5.72
2022-11-16T15:21:59.206Z,5.70
2022-11-16T15:24:37.051Z,5.70
2022-11-16T15:27:37.620Z,5.70
2022-11-16T15:30:24.844Z,5.70
2022-11-16T15:33:02.649Z,5.70
2022-11-16T15:35:40.829Z,5.70
2022-11-16T15:38:24.252Z,5.70
2022-11-16T15:41:03.726Z,5.70
2022-11-16T15:44:11.739Z,5.70
2022-11-16T15:46:49.032Z,5.70
2022-11-16T15:49:35.016Z,5.70
2022-11-16T15:52:11.484Z,5.70
2022-11-16T15:55:07.465Z,5.70
2022-11-16T15:57:46.542Z,5.70
2022-11-16T16:00:31.777Z,5.70
2022-11-16T16:03:21.509Z,5.68
2022-11-16T16:05:58.363Z,5.60
2022-11-16T16:08:41.826Z,5.60
2022-11-16T16:11:30.722Z,5.50
2022-11-16T16:14:10.852Z,5.50
2022-11-16T16:16:52.534Z,5.40
2022-11-16T16:19:41.293Z,5.40
2022-11-16T16:22:31.547Z,5.30
2022-11-16T16:25:23.264Z,5.30
2022-11-16T16:27:59.995Z,5.24
2022-11-16T16:30:37.062Z,5.20
2022-11-16T16:33:24.344Z,5.20
2022-11-16T16:36:00.225Z,5.20
2022-11-16T16:38:36.398Z,5.20
2022-11-16T16:41:24.450Z,5.20
2022-11-16T16:44:00.952Z,5.20
2022-11-16T16:46:37.106Z,5.10
2022-11-16T16:49:13.125Z,5.10
2022-11-16T16:51:49.408Z,5.10
2022-11-16T16:54:26.175Z,5.10
2022-11-16T16:57:02.571Z,5.10
2022-11-16T16:59:38.468Z,5.10
2022-11-16T17:02:16.268Z,5.10
2022-11-16T17:04:52.448Z,5.04
2022-11-16T17:07:28.632Z,5.00
2022-11-16T17:10:05.221Z,5.00
2022-11-16T17:12:41.391Z,5.00
2022-11-16T17:15:19.497Z,5.00
2022-11-16T17:17:55.814Z,4.90
2022-11-16T17:20:32.852Z,4.90
2022-11-16T17:23:09.169Z,4.82
2022-11-16T17:25:45.107Z,4.80
2022-11-16T17:28:21.166Z,4.80
2022-11-16T17:31:01.287Z,4.70
2022-11-16T17:33:41.724Z,4.70
2022-11-16T17:36:19.947Z,4.62
2022-11-16T17:38:55.878Z,4.60
2022-11-16T17:41:31.823Z,4.58
2022-11-16T17:44:09.324Z,4.50
2022-11-16T17:46:45.311Z,4.50
2022-11-16T17:49:21.610Z,4.40
2022-11-16T17:51:57.576Z,4.40
2022-11-16T17:54:33.698Z,4.40
2022-11-16T17:57:10.311Z,4.36
2022-11-16T17:59:46.809Z,4.30
2022-11-16T18:02:22.931Z,4.30
2022-11-16T18:04:59.117Z,4.30
2022-11-16T18:07:38.548Z,4.20
2022-11-16T18:10:19.261Z,4.20
2022-11-16T18:12:56.482Z,4.20
2022-11-16T18:15:37.790Z,4.12
2022-11-16T18:18:17.450Z,4.10
2022-11-16T18:20:53.347Z,4.10
2022-11-16T18:23:29.437Z,4.08
2022-11-16T18:26:12.600Z,4.00
2022-11-16T18:28:50.427Z,4.00
2022-11-16T18:31:28.192Z,4.00
2022-11-16T18:34:04.498Z,4.00
2022-11-16T18:36:40.662Z,4.00
2022-11-16T18:39:17.971Z,3.90
2022-11-16T18:41:55.291Z,3.90
2022-11-16T18:44:31.456Z,3.90
2022-11-16T18:47:07.629Z,3.90
2022-11-16T18:49:43.513Z,3.80
2022-11-16T18:52:19.534Z,3.80
2022-11-16T18:54:55.529Z,3.80
2022-11-16T18:57:32.502Z,3.70
2022-11-16T19:00:11.752Z,3.70
2022-11-16T19:02:48.896Z,3.62
2022-11-16T19:05:24.760Z,3.60
2022-11-16T19:08:00.758Z,3.60
2022-11-16T19:10:40.455Z,3.50
2022-11-16T19:13:17.867Z,3.50
2022-11-16T19:15:57.308Z,3.48
2022-11-16T19:18:33.551Z,3.40
2022-11-16T19:21:12.931Z,3.38
2022-11-16T19:23:52.405Z,3.30
2022-11-16T19:26:30.153Z,3.30
2022-11-16T19:29:06.961Z,3.20
2022-11-16T19:31:42.935Z,3.20
2022-11-16T19:34:19.361Z,3.16
2022-11-16T19:36:55.310Z,3.10
2022-11-16T19:39:31.356Z,3.10
2022-11-16T19:42:07.583Z,3.00
2022-11-16T19:44:43.693Z,3.00
2022-11-16T19:47:19.736Z,3.00
2022-11-16T19:49:56.099Z,2.96
2022-11-16T19:52:32.466Z,2.90
2022-11-16T19:55:10.455Z,2.90
2022-11-16T19:57:46.630Z,2.90
2022-11-16T20:00:24.502Z,2.90
2022-11-16T20:03:02.709Z,2.90
2022-11-16T20:05:38.694Z,2.90
2022-11-16T20:08:15.760Z,2.90
2022-11-16T20:10:51.880Z,2.90
2022-11-16T20:13:27.844Z,2.84
2022-11-16T20:16:07.382Z,2.80
2022-11-16T20:18:44.903Z,2.80
2022-11-16T20:21:29.001Z,2.80
2022-11-16T20:24:11.195Z,2.80
2022-11-16T20:26:50.289Z,2.80
2022-11-16T20:29:26.667Z,2.80
2022-11-16T20:32:02.723Z,2.80
2022-11-16T20:34:38.710Z,2.80
2022-11-16T20:37:16.535Z,2.80
2022-11-16T20:39:57.254Z,2.80
2022-11-16T20:42:33.572Z,2.80
2022-11-16T20:45:13.108Z,2.80
2022-11-16T20:47:49.152Z,2.80
2022-11-16T20:50:25.331Z,2.80
2022-11-16T20:53:01.326Z,2.80
2022-11-16T20:55:37.960Z,2.80
2022-11-16T20:58:18.645Z,2.80
2022-11-16T21:01:00.405Z,2.80
2022-11-16T21:03:37.716Z,2.80
2022-11-16T21:06:15.095Z,2.80
2022-11-16T21:08:51.328Z,2.74
2022-11-16T21:11:51.210Z,2.78
2022-11-16T21:14:28.685Z,2.70
2022-11-16T21:17:05.192Z,2.70
2022-11-16T21:19:54.308Z,2.70
2022-11-16T21:22:38.759Z,2.72
2022-11-16T21:25:15.957Z,2.70
2022-11-16T21:27:52.686Z,2.70
2022-11-16T21:30:31.541Z,2.70
2022-11-16T21:33:07.900Z,2.70
2022-11-16T21:35:44.550Z,2.70
2022-11-16T21:38:21.259Z,2.70
2022-11-16T21:40:57.394Z,2.70
2022-11-16T21:43:35.573Z,2.70
2022-11-16T21:46:16.004Z,2.70
2022-11-16T21:48:52.935Z,2.70
2022-11-16T21:51:30.906Z,2.70
2022-11-16T21:54:07.428Z,2.70
2022-11-16T21:56:43.354Z,2.70
2022-11-16T21:59:19.276Z,2.70
2022-11-16T22:02:00.705Z,2.70
2022-11-16T22:04:54.324Z,2.70
2022-11-16T22:07:37.829Z,2.70
2022-11-16T22:10:15.682Z,2.70
2022-11-16T22:12:51.465Z,2.70
2022-11-16T22:15:27.357Z,2.70
2022-11-16T22:18:04.603Z,2.70
2022-11-16T22:20:40.580Z,2.70
2022-11-16T22:23:22.521Z,2.70
2022-11-16T22:26:04.042Z,2.70
2022-11-16T22:28:40.523Z,2.70
2022-11-16T22:31:18.080Z,2.68
2022-11-16T22:33:57.188Z,2.62
2022-11-16T22:36:33.029Z,2.60
2022-11-16T22:39:09.059Z,2.60
2022-11-16T22:41:45.002Z,2.60
2022-11-16T22:44:20.964Z,2.56
2022-11-16T22:46:57.316Z,2.50
2022-11-16T22:49:33.451Z,2.50
2022-11-16T22:52:09.528Z,2.50
2022-11-16T22:54:45.534Z,2.42
2022-11-16T22:57:21.769Z,2.40
2022-11-16T22:59:57.712Z,2.40
2022-11-16T23:02:33.519Z,2.40
2022-11-16T23:05:10.969Z,2.38
2022-11-16T23:07:46.860Z,2.32
2022-11-16T23:10:23.106Z,2.30
2022-11-16T23:13:16.663Z,2.34
2022-11-16T23:15:52.952Z,2.40
2022-11-16T23:18:29.573Z,2.40
2022-11-16T23:21:24.684Z,2.40
2022-11-16T23:24:21.407Z,2.40
2022-11-16T23:27:15.568Z,2.32
2022-11-16T23:29:53.558Z,2.30
2022-11-16T23:32:30.254Z,2.30
2022-11-16T23:35:07.154Z,2.30
2022-11-16T23:37:57.066Z,2.30
2022-11-16T23:40:36.217Z,2.30
2022-11-16T23:43:31.637Z,2.30
2022-11-16T23:46:07.743Z,2.30
2022-11-16T23:48:43.913Z,2.30
2022-11-16T23:51:23.804Z,2.22
2022-11-16T23:54:00.306Z,2.20
2022-11-16T23:56:36.436Z,2.20
2022-11-16T23:59:13.113Z,2.20
